Lomax, Illinois
Current Conditions -  °F | °C
As of 9:53 PM on Thursday 20 Nov 2014 (Local Time) from KBRL Reporting Station
Clear Clear  
Wind Chill: 10°   Ceiling: Unl
Heat Index: 18°   Visibility: 10mi
Dew Point: 10°   Wind: 6mph
Humidity: 71%   Direction: 360°N
Pressure: 30.32"   Gusts: NA
Location:  40.68°N, 91.07°W
Report Text: KBRL 210353Z AUTO 36005KT 10SM CLR M08/M12 A3032 RMK AO2 SLP276 T10781122 PWINO FZRANO $
Loading
Personal Weather Stations






























Interactive Weather Map New forecast layout! Learn more

10-Day Weather Forecast

Advertisements
Track Severe Weather on mobile